createdAt,value
2018-04-14T00:00:03.339Z,65.20
2018-04-14T00:00:41.984Z,63.40
2018-04-14T00:01:17.399Z,66.70
2018-04-14T00:01:52.717Z,68.40
2018-04-14T00:02:28.117Z,65.50
2018-04-14T00:03:03.481Z,65.90
2018-04-14T00:03:41.608Z,65.80
2018-04-14T00:04:17.240Z,66.20
2018-04-14T00:04:54.113Z,67.20
2018-04-14T00:05:29.537Z,66.00
2018-04-14T00:06:05.037Z,64.60
2018-04-14T00:06:40.573Z,66.40
2018-04-14T00:07:16.208Z,68.00
2018-04-14T00:07:51.531Z,68.20
2018-04-14T00:08:26.726Z,64.00
2018-04-14T00:09:02.331Z,65.30
2018-04-14T00:09:38.141Z,65.60
2018-04-14T00:10:13.746Z,63.10
2018-04-14T00:10:50.659Z,65.90
2018-04-14T00:11:26.203Z,63.90
2018-04-14T00:12:02.067Z,64.30
2018-04-14T00:12:37.479Z,67.30
2018-04-14T00:13:12.904Z,67.40
2018-04-14T00:13:48.281Z,68.80
2018-04-14T00:14:23.648Z,67.60
2018-04-14T00:14:59.092Z,68.30
2018-04-14T00:15:34.525Z,67.40
2018-04-14T00:16:09.953Z,65.50
2018-04-14T00:16:45.178Z,64.00
2018-04-14T00:17:20.403Z,65.30
2018-04-14T00:17:55.815Z,66.20
2018-04-14T00:18:31.132Z,68.00
2018-04-14T00:19:06.493Z,72.00
2018-04-14T00:19:41.851Z,70.50
2018-04-14T00:20:17.110Z,67.30
2018-04-14T00:20:52.818Z,68.50
2018-04-14T00:21:27.966Z,69.20
2018-04-14T00:22:03.445Z,67.60
2018-04-14T00:22:39.378Z,68.10
2018-04-14T00:23:15.139Z,67.60
2018-04-14T00:23:50.599Z,67.00
2018-04-14T00:24:26.129Z,68.20
2018-04-14T00:25:01.815Z,68.60
2018-04-14T00:25:37.529Z,65.10
2018-04-14T00:26:12.768Z,65.70
2018-04-14T00:26:48.100Z,69.90
2018-04-14T00:27:23.379Z,71.60
2018-04-14T00:27:58.872Z,71.90
2018-04-14T00:28:34.324Z,71.50
2018-04-14T00:29:10.286Z,66.30
2018-04-14T00:29:46.219Z,68.10
2018-04-14T00:30:21.667Z,69.60
2018-04-14T00:30:57.107Z,71.00
2018-04-14T00:31:32.887Z,70.50
2018-04-14T00:32:08.365Z,70.50
2018-04-14T00:32:43.789Z,66.90
2018-04-14T00:33:19.881Z,66.90
2018-04-14T00:33:55.194Z,69.80
2018-04-14T00:34:30.770Z,71.50
2018-04-14T00:35:06.386Z,72.70
2018-04-14T00:35:42.190Z,72.30
2018-04-14T00:36:17.633Z,71.30
2018-04-14T00:36:52.959Z,70.20
2018-04-14T00:37:28.510Z,70.00
2018-04-14T00:38:04.295Z,69.40
2018-04-14T00:38:39.613Z,69.20
2018-04-14T00:39:15.122Z,66.50
2018-04-14T00:39:50.577Z,68.00
2018-04-14T00:40:26.228Z,65.90
2018-04-14T00:41:01.761Z,66.40
2018-04-14T00:41:37.022Z,68.70
2018-04-14T00:42:12.688Z,71.90
2018-04-14T00:42:48.386Z,74.40
2018-04-14T00:43:23.549Z,74.60
2018-04-14T00:43:58.958Z,69.80
2018-04-14T00:44:34.163Z,65.90
2018-04-14T00:45:10.622Z,65.30
2018-04-14T00:45:47.436Z,70.30
2018-04-14T00:46:22.852Z,71.20
2018-04-14T00:46:58.148Z,68.20
2018-04-14T00:47:33.849Z,67.00
2018-04-14T00:48:09.056Z,66.60
2018-04-14T00:48:44.619Z,68.10
2018-04-14T00:49:20.263Z,70.80
2018-04-14T00:49:55.773Z,67.20
2018-04-14T00:50:32.558Z,68.00
2018-04-14T00:51:07.947Z,66.70
2018-04-14T00:51:43.591Z,67.20
2018-04-14T00:52:19.097Z,67.90
2018-04-14T00:52:54.409Z,69.60
2018-04-14T00:53:29.862Z,72.90
2018-04-14T00:54:05.501Z,72.00
2018-04-14T00:54:42.229Z,71.00
2018-04-14T00:55:17.846Z,70.20
2018-04-14T00:55:54.075Z,67.10
2018-04-14T00:56:29.699Z,70.60
2018-04-14T00:57:05.471Z,71.10
2018-04-14T00:57:41.858Z,69.10
2018-04-14T00:58:17.641Z,72.50
2018-04-14T00:58:53.073Z,70.80
2018-04-14T00:59:28.528Z,69.10
2018-04-14T01:00:04.023Z,69.60
2018-04-14T01:00:43.333Z,69.70
2018-04-14T01:01:18.653Z,69.40
2018-04-14T01:01:54.048Z,68.50
2018-04-14T01:02:29.625Z,67.90
2018-04-14T01:03:05.919Z,66.90
2018-04-14T01:03:42.540Z,68.90
2018-04-14T01:04:17.818Z,67.60
2018-04-14T01:04:53.403Z,68.10
2018-04-14T01:05:28.872Z,69.10
2018-04-14T01:06:04.137Z,69.20
2018-04-14T01:06:39.547Z,68.70
2018-04-14T01:07:14.663Z,66.20
2018-04-14T01:07:50.402Z,67.00
2018-04-14T01:08:26.001Z,67.90
2018-04-14T01:09:01.442Z,65.50
2018-04-14T01:09:37.751Z,66.10
2018-04-14T01:10:13.176Z,67.60
2018-04-14T01:10:49.089Z,65.70
2018-04-14T01:11:24.416Z,64.70
2018-04-14T01:12:00.037Z,63.40
2018-04-14T01:12:35.491Z,64.20
2018-04-14T01:13:11.172Z,64.70
2018-04-14T01:13:46.584Z,67.00
2018-04-14T01:14:22.126Z,66.00
2018-04-14T01:14:57.391Z,65.50
2018-04-14T01:15:32.516Z,66.00
2018-04-14T01:16:07.873Z,66.70
2018-04-14T01:16:43.172Z,64.90
2018-04-14T01:17:18.734Z,67.80
2018-04-14T01:17:54.435Z,67.70
2018-04-14T01:18:29.873Z,65.30
2018-04-14T01:19:05.484Z,64.30
2018-04-14T01:19:40.836Z,65.40
2018-04-14T01:20:16.143Z,67.20
2018-04-14T01:20:51.649Z,66.90
2018-04-14T01:21:28.232Z,64.60
2018-04-14T01:22:03.702Z,64.10
2018-04-14T01:22:39.182Z,65.00
2018-04-14T01:23:14.646Z,67.00
2018-04-14T01:23:49.993Z,66.00
2018-04-14T01:24:25.252Z,61.60
2018-04-14T01:25:00.733Z,63.20
2018-04-14T01:25:36.202Z,65.00
2018-04-14T01:26:12.243Z,66.80
2018-04-14T01:26:48.139Z,64.80
2018-04-14T01:27:23.655Z,62.20
2018-04-14T01:27:59.154Z,62.30
2018-04-14T01:28:34.912Z,62.70
2018-04-14T01:29:10.568Z,66.30
2018-04-14T01:29:46.180Z,66.00
2018-04-14T01:30:21.442Z,63.40
2018-04-14T01:30:56.933Z,62.70
2018-04-14T01:31:32.421Z,61.40
2018-04-14T01:32:08.013Z,60.60
2018-04-14T01:32:44.770Z,61.80
2018-04-14T01:33:20.066Z,62.90
2018-04-14T01:33:55.606Z,59.40
2018-04-14T01:34:30.933Z,55.50
2018-04-14T01:35:06.341Z,59.50
2018-04-14T01:35:43.172Z,63.00
2018-04-14T01:36:25.431Z,58.50
2018-04-14T01:37:01.022Z,57.40
2018-04-14T01:37:36.980Z,59.60
2018-04-14T01:38:12.292Z,60.80
2018-04-14T01:38:47.721Z,59.20
2018-04-14T01:39:22.988Z,58.80
2018-04-14T01:39:58.279Z,57.70
2018-04-14T01:40:33.548Z,57.90
2018-04-14T01:41:09.006Z,58.20
2018-04-14T01:41:45.286Z,58.80
2018-04-14T01:42:20.784Z,56.70
2018-04-14T01:42:56.044Z,56.00
2018-04-14T01:43:31.498Z,55.80
2018-04-14T01:44:06.895Z,56.00
2018-04-14T01:44:42.776Z,55.40
2018-04-14T01:45:20.784Z,55.80
2018-04-14T01:45:56.349Z,55.30
2018-04-14T01:46:31.879Z,54.90
2018-04-14T01:47:07.171Z,55.60
2018-04-14T01:47:43.402Z,56.10
2018-04-14T01:48:19.015Z,55.70
2018-04-14T01:48:54.537Z,58.40
2018-04-14T01:49:30.252Z,58.00
2018-04-14T01:50:05.579Z,55.70
2018-04-14T01:50:43.694Z,53.40
2018-04-14T01:51:19.160Z,55.30
2018-04-14T01:51:54.679Z,54.50
2018-04-14T01:52:30.131Z,53.50
2018-04-14T01:53:05.589Z,53.50
2018-04-14T01:53:41.122Z,56.10
2018-04-14T01:54:16.593Z,54.30
2018-04-14T01:54:52.330Z,52.60
2018-04-14T01:55:28.273Z,54.10
2018-04-14T01:56:04.121Z,53.80
2018-04-14T01:56:39.963Z,52.10
2018-04-14T01:57:15.421Z,51.80
2018-04-14T01:57:50.820Z,52.50
2018-04-14T01:58:26.237Z,53.70
2018-04-14T01:59:02.024Z,51.70
2018-04-14T01:59:37.855Z,52.90
2018-04-14T02:00:13.592Z,52.40
2018-04-14T02:00:51.303Z,52.30
2018-04-14T02:01:26.691Z,52.70
2018-04-14T02:02:02.721Z,52.90
2018-04-14T02:02:38.476Z,53.10
2018-04-14T02:03:13.763Z,49.70
2018-04-14T02:03:49.455Z,49.10
2018-04-14T02:04:24.800Z,49.70
2018-04-14T02:05:00.204Z,50.00
2018-04-14T02:05:36.541Z,48.50
2018-04-14T02:06:12.383Z,46.80
2018-04-14T02:06:47.820Z,47.60
2018-04-14T02:07:23.558Z,47.50
2018-04-14T02:07:59.001Z,45.20
2018-04-14T02:08:34.678Z,46.80
2018-04-14T02:09:09.787Z,47.20
2018-04-14T02:09:45.285Z,45.30
2018-04-14T02:10:20.544Z,45.60
2018-04-14T02:10:56.021Z,46.40
2018-04-14T02:11:31.470Z,45.60
2018-04-14T02:12:06.746Z,44.80
2018-04-14T02:12:42.464Z,44.20
2018-04-14T02:13:18.052Z,45.10
2018-04-14T02:13:53.661Z,47.00
2018-04-14T02:14:29.032Z,45.80
2018-04-14T02:15:04.440Z,46.80
2018-04-14T02:15:40.101Z,45.50
2018-04-14T02:16:17.851Z,45.60
2018-04-14T02:16:53.476Z,45.10
2018-04-14T02:17:28.849Z,46.40
2018-04-14T02:18:04.357Z,45.20
2018-04-14T02:18:40.225Z,44.00
2018-04-14T02:19:15.772Z,44.50
2018-04-14T02:19:51.476Z,45.00
2018-04-14T02:20:26.925Z,45.20
2018-04-14T02:21:02.338Z,44.10
2018-04-14T02:21:37.821Z,42.70
2018-04-14T02:22:13.088Z,42.30
2018-04-14T02:22:48.644Z,42.00
2018-04-14T02:23:23.902Z,42.70
2018-04-14T02:23:59.178Z,40.70
2018-04-14T02:24:34.543Z,41.20
2018-04-14T02:25:09.872Z,41.20
2018-04-14T02:25:46.306Z,41.80
2018-04-14T02:26:22.286Z,41.30
2018-04-14T02:26:57.970Z,39.80
2018-04-14T02:27:33.655Z,40.50
2018-04-14T02:28:08.925Z,42.70
2018-04-14T02:28:44.179Z,41.70
2018-04-14T02:29:19.395Z,40.80
2018-04-14T02:29:55.093Z,41.00
2018-04-14T02:30:30.698Z,41.10
2018-04-14T02:31:06.186Z,40.90
2018-04-14T02:31:41.933Z,41.00
2018-04-14T02:32:17.190Z,40.60
2018-04-14T02:32:52.551Z,40.20
2018-04-14T02:33:28.048Z,41.30
2018-04-14T02:34:03.676Z,41.00
2018-04-14T02:34:39.130Z,39.90
2018-04-14T02:35:15.139Z,39.40
2018-04-14T02:35:50.448Z,39.80
2018-04-14T02:36:25.983Z,39.50
2018-04-14T02:37:01.415Z,41.00
2018-04-14T02:37:37.068Z,40.90
2018-04-14T02:38:12.791Z,39.40
2018-04-14T02:38:48.636Z,40.70
2018-04-14T02:39:24.306Z,40.50
2018-04-14T02:39:59.758Z,39.20
2018-04-14T02:40:35.266Z,40.70
2018-04-14T02:41:11.009Z,40.20
2018-04-14T02:41:46.316Z,41.70
2018-04-14T02:42:21.650Z,42.20
2018-04-14T02:42:57.475Z,40.10
2018-04-14T02:43:33.325Z,40.50
2018-04-14T02:44:08.846Z,40.60
2018-04-14T02:44:44.224Z,40.20
2018-04-14T02:45:20.232Z,37.60
2018-04-14T02:45:55.691Z,38.60
2018-04-14T02:46:31.136Z,40.10
2018-04-14T02:47:06.529Z,40.40
2018-04-14T02:47:42.974Z,40.90
2018-04-14T02:48:18.284Z,41.10
2018-04-14T02:48:53.933Z,41.50
2018-04-14T02:49:29.317Z,41.10
2018-04-14T02:50:04.614Z,39.20
2018-04-14T02:50:40.833Z,39.10
2018-04-14T02:51:16.312Z,39.50
2018-04-14T02:51:52.038Z,40.40
2018-04-14T02:52:27.405Z,39.80
2018-04-14T02:53:03.106Z,39.00
2018-04-14T02:53:38.648Z,38.60
2018-04-14T02:54:13.989Z,39.20
2018-04-14T02:54:49.716Z,40.60
2018-04-14T02:55:25.867Z,40.80
2018-04-14T02:56:01.365Z,39.80
2018-04-14T02:56:36.676Z,38.00
2018-04-14T02:57:12.055Z,40.00
2018-04-14T02:57:47.514Z,40.70
2018-04-14T02:58:23.152Z,39.30
2018-04-14T02:58:58.545Z,38.10
2018-04-14T02:59:33.904Z,38.60
2018-04-14T03:00:09.372Z,39.60
2018-04-14T03:00:44.629Z,40.00
2018-04-14T03:01:21.674Z,39.50
2018-04-14T03:01:57.094Z,40.20
2018-04-14T03:02:32.461Z,39.50
2018-04-14T03:03:08.072Z,38.60
2018-04-14T03:03:43.378Z,40.80
2018-04-14T03:04:18.741Z,41.50
2018-04-14T03:04:54.099Z,38.90
2018-04-14T03:05:29.770Z,40.30
2018-04-14T03:06:05.407Z,41.90
2018-04-14T03:06:40.891Z,41.90
2018-04-14T03:07:16.474Z,39.80
2018-04-14T03:07:52.377Z,38.80
2018-04-14T03:08:27.755Z,39.10
2018-04-14T03:09:03.145Z,40.80
2018-04-14T03:09:39.010Z,40.50
2018-04-14T03:10:14.400Z,40.00
2018-04-14T03:10:50.094Z,39.10
2018-04-14T03:11:25.576Z,37.70
2018-04-14T03:12:01.170Z,39.80
2018-04-14T03:12:36.869Z,41.40
2018-04-14T03:13:12.241Z,40.30
2018-04-14T03:13:47.988Z,39.60
2018-04-14T03:14:23.280Z,41.00
2018-04-14T03:14:58.846Z,39.90
2018-04-14T03:15:34.246Z,41.00
2018-04-14T03:16:09.742Z,40.60
2018-04-14T03:16:45.074Z,40.80
2018-04-14T03:17:20.946Z,41.50
2018-04-14T03:17:56.488Z,40.90
2018-04-14T03:18:31.849Z,39.60
2018-04-14T03:19:07.279Z,39.60
2018-04-14T03:19:44.741Z,41.40
2018-04-14T03:20:20.442Z,43.20
2018-04-14T03:20:56.315Z,42.00
2018-04-14T03:21:31.831Z,41.00
2018-04-14T03:22:07.424Z,42.10
2018-04-14T03:22:43.076Z,41.90
2018-04-14T03:23:18.381Z,41.20
2018-04-14T03:23:53.834Z,39.60
2018-04-14T03:24:29.501Z,39.50
2018-04-14T03:25:06.111Z,41.60
2018-04-14T03:25:46.529Z,41.50
2018-04-14T03:26:22.024Z,40.60
2018-04-14T03:26:57.742Z,40.20
2018-04-14T03:27:33.211Z,40.50
2018-04-14T03:28:08.713Z,40.50
2018-04-14T03:28:44.504Z,41.00
2018-04-14T03:29:19.899Z,41.00
2018-04-14T03:29:55.250Z,42.60
2018-04-14T03:30:30.685Z,41.90
2018-04-14T03:31:06.131Z,41.00
2018-04-14T03:31:41.595Z,42.00
2018-04-14T03:32:17.163Z,42.20
2018-04-14T03:32:52.809Z,40.60
2018-04-14T03:33:28.284Z,40.00
2018-04-14T03:34:03.646Z,40.30
2018-04-14T03:34:39.176Z,38.90
2018-04-14T03:35:14.708Z,40.60
2018-04-14T03:35:50.032Z,42.40
2018-04-14T03:36:25.633Z,42.20
2018-04-14T03:37:01.006Z,42.00
2018-04-14T03:37:36.610Z,41.60
2018-04-14T03:38:12.175Z,40.80
2018-04-14T03:38:47.471Z,41.60
2018-04-14T03:39:23.009Z,41.20
2018-04-14T03:39:58.704Z,41.30
2018-04-14T03:40:34.440Z,40.00
2018-04-14T03:41:10.042Z,42.90
2018-04-14T03:41:45.402Z,43.50
2018-04-14T03:42:20.820Z,40.60
2018-04-14T03:42:56.151Z,40.80
2018-04-14T03:43:31.420Z,43.00
2018-04-14T03:44:06.752Z,43.00
2018-04-14T03:44:42.410Z,44.00
2018-04-14T03:45:17.835Z,42.00
2018-04-14T03:45:53.111Z,40.40
2018-04-14T03:46:28.543Z,41.60
2018-04-14T03:47:04.096Z,43.00
2018-04-14T03:47:39.629Z,42.50
2018-04-14T03:48:15.160Z,40.50
2018-04-14T03:48:50.926Z,40.30
2018-04-14T03:49:26.400Z,40.30
2018-04-14T03:50:01.681Z,41.00
2018-04-14T03:50:37.537Z,41.30
2018-04-14T03:51:13.012Z,40.50
2018-04-14T03:51:48.391Z,41.20
2018-04-14T03:52:24.152Z,40.20
2018-04-14T03:52:59.431Z,42.00
2018-04-14T03:53:34.693Z,44.20
2018-04-14T03:54:10.249Z,42.00
2018-04-14T03:54:45.873Z,41.70
2018-04-14T03:55:21.276Z,42.60
2018-04-14T03:55:56.633Z,43.00
2018-04-14T03:56:32.086Z,41.40
2018-04-14T03:57:07.707Z,41.10
2018-04-14T03:57:43.802Z,42.10
2018-04-14T03:58:20.470Z,42.50
2018-04-14T03:58:55.917Z,41.50
2018-04-14T03:59:31.217Z,39.90
2018-04-14T04:00:06.789Z,42.90
2018-04-14T04:00:44.005Z,43.60
2018-04-14T04:01:19.562Z,43.70
2018-04-14T04:01:55.113Z,42.50
2018-04-14T04:02:30.591Z,41.40
2018-04-14T04:03:06.127Z,40.20
2018-04-14T04:03:41.576Z,40.00
2018-04-14T04:04:16.909Z,41.50
2018-04-14T04:04:54.992Z,42.40
2018-04-14T04:05:31.258Z,43.00
2018-04-14T04:06:09.543Z,42.40
2018-04-14T04:06:44.871Z,41.40
2018-04-14T04:07:26.606Z,42.20
2018-04-14T04:08:05.091Z,41.90
2018-04-14T04:08:40.530Z,41.30
2018-04-14T04:09:15.853Z,41.80
2018-04-14T04:09:51.217Z,41.20
2018-04-14T04:10:26.557Z,42.00
2018-04-14T04:11:02.104Z,40.50
2018-04-14T04:11:40.667Z,41.90
2018-04-14T04:12:16.316Z,40.30
2018-04-14T04:12:51.682Z,40.50
2018-04-14T04:13:27.321Z,41.30
2018-04-14T04:14:02.885Z,41.70
2018-04-14T04:14:39.950Z,41.10
2018-04-14T04:15:15.193Z,41.90
2018-04-14T04:15:53.978Z,41.10
2018-04-14T04:16:29.523Z,42.40
2018-04-14T04:17:05.136Z,43.30
2018-04-14T04:17:46.838Z,43.00
2018-04-14T04:18:22.317Z,41.60
2018-04-14T04:18:57.747Z,41.70
2018-04-14T04:19:33.069Z,42.40
2018-04-14T04:20:08.586Z,41.80
2018-04-14T04:20:48.188Z,41.60
2018-04-14T04:21:23.523Z,40.80
2018-04-14T04:21:59.080Z,41.40
2018-04-14T04:22:38.383Z,40.70
2018-04-14T04:23:13.953Z,40.80
2018-04-14T04:23:49.357Z,43.10
2018-04-14T04:24:24.718Z,42.40
2018-04-14T04:25:00.496Z,41.30
2018-04-14T04:25:36.762Z,41.80
2018-04-14T04:26:13.280Z,41.90
2018-04-14T04:26:52.161Z,43.40
2018-04-14T04:27:28.291Z,41.80
2018-04-14T04:28:03.934Z,43.10
2018-04-14T04:28:42.575Z,41.40
2018-04-14T04:29:17.951Z,41.20
2018-04-14T04:29:53.256Z,40.80
2018-04-14T04:30:29.064Z,40.80
2018-04-14T04:31:04.278Z,41.60
2018-04-14T04:31:39.687Z,43.20
2018-04-14T04:32:15.462Z,40.80
2018-04-14T04:32:50.934Z,41.70
2018-04-14T04:33:26.254Z,43.10
2018-04-14T04:34:01.625Z,41.40
2018-04-14T04:34:39.433Z,42.00
2018-04-14T04:35:15.019Z,43.20
2018-04-14T04:35:50.250Z,43.30
2018-04-14T04:36:25.713Z,44.10
2018-04-14T04:37:01.148Z,43.80
2018-04-14T04:37:36.740Z,42.50
2018-04-14T04:38:12.099Z,42.70
2018-04-14T04:38:47.684Z,42.00
2018-04-14T04:39:22.915Z,42.30
2018-04-14T04:39:58.691Z,43.60
2018-04-14T04:40:34.358Z,42.90
2018-04-14T04:41:09.728Z,41.20
2018-04-14T04:41:46.356Z,42.00
2018-04-14T04:42:21.847Z,42.00
2018-04-14T04:42:57.290Z,42.60
2018-04-14T04:43:32.881Z,43.70
2018-04-14T04:44:08.496Z,43.10
2018-04-14T04:44:44.632Z,41.30
2018-04-14T04:45:20.256Z,42.90
2018-04-14T04:45:55.792Z,43.60
2018-04-14T04:46:31.324Z,42.90
2018-04-14T04:47:06.808Z,43.30
2018-04-14T04:47:42.639Z,42.90
2018-04-14T04:48:18.109Z,43.60
2018-04-14T04:48:53.995Z,43.40
2018-04-14T04:49:29.718Z,41.20
2018-04-14T04:50:05.359Z,43.40
2018-04-14T04:50:40.936Z,44.60
2018-04-14T04:51:16.666Z,44.30
2018-04-14T04:51:52.065Z,45.10
2018-04-14T04:52:27.498Z,44.00
2018-04-14T04:53:02.816Z,44.00
2018-04-14T04:53:38.096Z,43.10
2018-04-14T04:54:13.338Z,45.20
2018-04-14T04:54:48.983Z,45.50
2018-04-14T04:55:24.511Z,44.40
2018-04-14T04:56:00.212Z,44.10
2018-04-14T04:56:35.781Z,45.40
2018-04-14T04:57:11.146Z,43.70
2018-04-14T04:57:46.748Z,43.50
2018-04-14T04:58:22.015Z,43.70
2018-04-14T04:58:57.296Z,42.20
2018-04-14T04:59:32.718Z,43.50
2018-04-14T05:00:08.178Z,45.20
2018-04-14T05:00:44.547Z,45.10
2018-04-14T05:01:19.730Z,43.60
2018-04-14T05:01:55.156Z,44.70
2018-04-14T05:02:30.726Z,44.50
2018-04-14T05:03:05.948Z,45.10
2018-04-14T05:03:41.463Z,45.80
2018-04-14T05:04:16.972Z,44.90
2018-04-14T05:04:52.710Z,45.20
2018-04-14T05:05:28.247Z,45.20
2018-04-14T05:06:03.516Z,45.10
2018-04-14T05:06:38.939Z,48.30
2018-04-14T05:07:14.409Z,47.30
2018-04-14T05:07:50.625Z,45.20
2018-04-14T05:08:26.246Z,46.40
2018-04-14T05:09:01.705Z,45.90
2018-04-14T05:09:37.354Z,46.10
2018-04-14T05:10:12.791Z,48.30
2018-04-14T05:10:48.255Z,48.00
2018-04-14T05:11:23.583Z,47.50
2018-04-14T05:11:59.034Z,46.00
2018-04-14T05:12:34.380Z,45.50
2018-04-14T05:13:10.129Z,47.00
2018-04-14T05:13:45.568Z,47.60
2018-04-14T05:14:20.926Z,47.20
2018-04-14T05:14:56.369Z,44.20
2018-04-14T05:15:32.159Z,43.30
2018-04-14T05:16:07.517Z,46.30
2018-04-14T05:16:43.059Z,45.10
2018-04-14T05:17:19.025Z,46.10
2018-04-14T05:17:54.230Z,47.60
2018-04-14T05:18:29.698Z,46.00
2018-04-14T05:19:05.592Z,44.90
2018-04-14T05:19:41.044Z,45.20
2018-04-14T05:20:16.522Z,47.60
2018-04-14T05:20:51.762Z,47.70
2018-04-14T05:21:27.314Z,46.40
2018-04-14T05:22:03.489Z,46.60
2018-04-14T05:22:39.587Z,46.10
2018-04-14T05:23:15.215Z,45.50
2018-04-14T05:23:50.958Z,44.80
2018-04-14T05:24:26.675Z,45.50
2018-04-14T05:25:02.186Z,47.50
2018-04-14T05:25:37.309Z,48.90
2018-04-14T05:26:13.131Z,47.20
2018-04-14T05:26:48.514Z,46.70
2018-04-14T05:27:23.988Z,47.80
2018-04-14T05:27:59.472Z,46.70
2018-04-14T05:28:35.075Z,44.90
2018-04-14T05:29:10.488Z,46.50
2018-04-14T05:29:47.165Z,48.30
2018-04-14T05:30:22.793Z,47.40
2018-04-14T05:30:58.165Z,45.60
2018-04-14T05:31:33.628Z,47.20
2018-04-14T05:32:08.965Z,48.80
2018-04-14T05:32:44.512Z,47.20
2018-04-14T05:33:19.992Z,46.60
2018-04-14T05:33:55.122Z,45.80
2018-04-14T05:34:30.753Z,45.70
2018-04-14T05:35:06.236Z,46.30
2018-04-14T05:35:41.951Z,47.20
2018-04-14T05:36:17.615Z,45.40
2018-04-14T05:36:52.906Z,43.60
2018-04-14T05:37:28.360Z,44.00
2018-04-14T05:38:03.910Z,43.90
2018-04-14T05:38:39.539Z,43.20
2018-04-14T05:39:15.353Z,45.20
2018-04-14T05:39:51.103Z,46.80
2018-04-14T05:40:26.479Z,43.70
2018-04-14T05:41:02.335Z,43.20
2018-04-14T05:41:37.603Z,44.00
2018-04-14T05:42:13.008Z,44.30
2018-04-14T05:42:48.479Z,44.50
2018-04-14T05:43:24.164Z,44.80
2018-04-14T05:43:59.809Z,44.60
2018-04-14T05:44:35.332Z,43.10
2018-04-14T05:45:11.924Z,43.20
2018-04-14T05:45:47.355Z,43.30
2018-04-14T05:46:22.872Z,43.00
2018-04-14T05:46:58.244Z,43.40
2018-04-14T05:47:33.611Z,43.60
2018-04-14T05:48:08.880Z,44.50
2018-04-14T05:48:44.620Z,44.60
2018-04-14T05:49:19.849Z,45.60
2018-04-14T05:49:55.347Z,44.10
2018-04-14T05:50:30.896Z,43.10
2018-04-14T05:51:06.369Z,43.80
2018-04-14T05:51:41.756Z,43.60
2018-04-14T05:52:17.056Z,42.50
2018-04-14T05:52:52.443Z,43.50
2018-04-14T05:53:28.376Z,43.70
2018-04-14T05:54:04.414Z,44.20
2018-04-14T05:54:40.022Z,44.00
2018-04-14T05:55:15.684Z,43.50
2018-04-14T05:55:51.633Z,43.70
2018-04-14T05:56:27.524Z,43.40
2018-04-14T05:57:03.417Z,42.80
2018-04-14T05:57:38.709Z,42.90
2018-04-14T05:58:14.258Z,41.60
2018-04-14T05:58:49.778Z,42.90
2018-04-14T05:59:25.048Z,43.00
2018-04-14T06:00:00.622Z,43.50
2018-04-14T06:00:36.148Z,42.90
2018-04-14T06:01:11.351Z,42.20
2018-04-14T06:01:46.870Z,44.10
2018-04-14T06:02:22.657Z,44.90
2018-04-14T06:02:58.052Z,44.00
2018-04-14T06:03:33.551Z,42.20
2018-04-14T06:04:09.282Z,41.80
2018-04-14T06:04:46.042Z,42.20
2018-04-14T06:05:21.897Z,41.80
2018-04-14T06:05:58.266Z,42.50
2018-04-14T06:06:34.285Z,42.60
2018-04-14T06:07:09.979Z,42.30
2018-04-14T06:07:45.170Z,42.10
2018-04-14T06:08:20.719Z,40.30
2018-04-14T06:08:56.212Z,39.20
2018-04-14T06:09:32.016Z,42.40
2018-04-14T06:10:07.384Z,42.10
2018-04-14T06:10:44.149Z,42.60
2018-04-14T06:11:20.949Z,41.20
2018-04-14T06:11:56.857Z,42.80
2018-04-14T06:12:32.522Z,43.40
2018-04-14T06:13:08.241Z,42.70
2018-04-14T06:13:44.180Z,42.00
2018-04-14T06:14:19.793Z,42.20
2018-04-14T06:14:55.630Z,41.50
2018-04-14T06:15:31.271Z,41.70
2018-04-14T06:16:07.332Z,39.90
2018-04-14T06:16:42.763Z,38.30
2018-04-14T06:17:18.368Z,40.10
2018-04-14T06:17:53.949Z,40.80
2018-04-14T06:18:29.398Z,43.00
2018-04-14T06:19:05.284Z,41.70
2018-04-14T06:19:40.846Z,40.70
2018-04-14T06:20:16.431Z,43.30
2018-04-14T06:20:52.138Z,40.80
2018-04-14T06:21:27.873Z,39.80
2018-04-14T06:22:04.616Z,41.70
2018-04-14T06:22:44.021Z,40.30
2018-04-14T06:23:26.066Z,40.40
2018-04-14T06:24:01.343Z,42.20
2018-04-14T06:24:36.880Z,39.90
2018-04-14T06:25:12.323Z,40.00
2018-04-14T06:25:51.867Z,39.30
2018-04-14T06:26:27.432Z,39.70
2018-04-14T06:27:02.836Z,42.10
2018-04-14T06:27:38.113Z,40.50
2018-04-14T06:28:13.632Z,39.50
2018-04-14T06:28:48.930Z,39.30
2018-04-14T06:29:24.508Z,39.00
2018-04-14T06:30:00.481Z,39.10
2018-04-14T06:30:39.664Z,39.80
2018-04-14T06:31:15.326Z,40.00
2018-04-14T06:31:52.154Z,39.30
2018-04-14T06:32:27.527Z,40.70
2018-04-14T06:33:03.195Z,41.40
2018-04-14T06:33:38.790Z,39.80
2018-04-14T06:34:13.892Z,39.80
2018-04-14T06:34:49.429Z,42.10
2018-04-14T06:35:24.864Z,41.70
2018-04-14T06:36:00.143Z,41.60
2018-04-14T06:36:35.565Z,41.00
2018-04-14T06:37:11.040Z,39.40
2018-04-14T06:37:47.297Z,39.90
2018-04-14T06:38:22.624Z,40.70
2018-04-14T06:38:58.213Z,41.90
2018-04-14T06:39:33.542Z,42.50
2018-04-14T06:40:09.147Z,41.40
2018-04-14T06:40:47.866Z,41.60
2018-04-14T06:41:26.840Z,40.70
2018-04-14T06:42:02.369Z,37.90
2018-04-14T06:42:38.137Z,37.90
2018-04-14T06:43:16.775Z,37.90
2018-04-14T06:43:54.713Z,38.40
2018-04-14T06:44:30.425Z,40.30
2018-04-14T06:45:05.908Z,38.30
2018-04-14T06:45:41.844Z,38.30
2018-04-14T06:46:17.273Z,38.00
2018-04-14T06:46:54.288Z,38.20
2018-04-14T06:47:30.136Z,38.60
2018-04-14T06:48:05.482Z,40.10
2018-04-14T06:48:41.230Z,38.00
2018-04-14T06:49:16.785Z,37.60
2018-04-14T06:49:52.421Z,38.70
2018-04-14T06:50:27.847Z,38.20
2018-04-14T06:51:03.009Z,37.30
2018-04-14T06:51:38.783Z,38.00
2018-04-14T06:52:14.313Z,37.50
2018-04-14T06:52:49.950Z,37.10
2018-04-14T06:53:25.372Z,37.90
2018-04-14T06:54:01.257Z,35.90
2018-04-14T06:54:36.838Z,36.60
2018-04-14T06:55:12.289Z,37.90
2018-04-14T06:55:47.804Z,38.00
2018-04-14T06:56:23.166Z,37.10
2018-04-14T06:56:58.754Z,38.00
2018-04-14T06:57:34.209Z,38.50
2018-04-14T06:58:09.909Z,37.30
2018-04-14T06:58:48.721Z,36.10
2018-04-14T06:59:24.077Z,38.30
2018-04-14T06:59:59.341Z,37.30
2018-04-14T07:00:34.651Z,36.50
2018-04-14T07:01:10.061Z,37.20
2018-04-14T07:01:45.225Z,36.60
2018-04-14T07:02:20.962Z,35.40
2018-04-14T07:02:56.490Z,36.70
2018-04-14T07:03:31.904Z,37.00
2018-04-14T07:04:07.257Z,35.50
2018-04-14T07:04:42.623Z,36.00
2018-04-14T07:05:18.087Z,35.00
2018-04-14T07:05:53.706Z,35.30
2018-04-14T07:06:29.281Z,36.30
2018-04-14T07:07:04.985Z,35.10
2018-04-14T07:07:40.341Z,35.70
2018-04-14T07:08:15.701Z,36.80
2018-04-14T07:08:51.090Z,35.10
2018-04-14T07:09:26.398Z,35.20
2018-04-14T07:10:01.797Z,36.70
2018-04-14T07:10:37.358Z,37.60
2018-04-14T07:11:12.839Z,37.50
2018-04-14T07:11:50.973Z,37.50
2018-04-14T07:12:26.537Z,36.00
2018-04-14T07:13:01.674Z,34.50
2018-04-14T07:13:36.991Z,34.90
2018-04-14T07:14:12.281Z,36.10
2018-04-14T07:14:48.140Z,37.80
2018-04-14T07:15:23.594Z,36.90
2018-04-14T07:15:58.787Z,36.60
2018-04-14T07:16:34.342Z,35.90
2018-04-14T07:17:09.836Z,35.90
2018-04-14T07:17:45.720Z,35.00
2018-04-14T07:18:21.165Z,35.20
2018-04-14T07:18:56.592Z,34.50
2018-04-14T07:19:32.064Z,34.10
2018-04-14T07:20:07.575Z,33.20
2018-04-14T07:20:43.267Z,34.90
2018-04-14T07:21:19.225Z,36.70
2018-04-14T07:21:54.815Z,36.10
2018-04-14T07:22:30.140Z,35.60
2018-04-14T07:23:05.512Z,35.50
2018-04-14T07:23:40.839Z,34.00
2018-04-14T07:24:16.102Z,35.90
2018-04-14T07:24:51.541Z,37.80
2018-04-14T07:25:27.147Z,36.50
2018-04-14T07:26:02.845Z,35.80
2018-04-14T07:26:38.287Z,36.70
2018-04-14T07:27:13.830Z,37.00
2018-04-14T07:27:49.408Z,36.20
2018-04-14T07:28:24.948Z,35.60
2018-04-14T07:29:00.243Z,36.10
2018-04-14T07:29:35.525Z,36.80
2018-04-14T07:30:10.714Z,36.70
2018-04-14T07:30:46.482Z,36.60
2018-04-14T07:31:21.960Z,36.50
2018-04-14T07:31:57.373Z,35.30
2018-04-14T07:32:33.528Z,35.30
2018-04-14T07:33:09.165Z,35.90
2018-04-14T07:33:44.795Z,37.30
2018-04-14T07:34:20.155Z,35.70
2018-04-14T07:34:55.475Z,35.10
2018-04-14T07:35:31.162Z,36.00
2018-04-14T07:36:06.598Z,35.20
2018-04-14T07:36:42.586Z,35.40
2018-04-14T07:37:18.339Z,37.10
2018-04-14T07:37:53.821Z,37.40
2018-04-14T07:38:29.775Z,36.40
2018-04-14T07:39:05.350Z,35.40
2018-04-14T07:39:41.760Z,35.40